Time;durP1;ratioP1;P1;durP2;ratioP2;P2;SDS_P1;SDS_P2;PMS_P1;PMS_P2;Temp;Humidity;BMP_temperature;BMP_pressure;BME280_temperature;BME280_humidity;BME280_pressure;Samples;Min_cycle;Max_cycle;Signal;HPM_P1;HPM_P2
2023/12/12 00:00:10;;;;;;;8.97;4.47;;;9.10;99.90;;;;;;4978706;28;20212;-82
2023/12/12 00:02:40;;;;;;;10.90;5.07;;;9.20;99.90;;;;;;4992486;28;20235;-83
2023/12/12 00:05:08;;;;;;;11.60;5.20;;;9.20;99.90;;;;;;4981622;28;20205;-83
2023/12/12 00:07:37;;;;;;;10.17;4.80;;;9.20;99.90;;;;;;4997958;28;20590;-83
2023/12/12 00:10:06;;;;;;;12.00;4.33;;;9.20;99.90;;;;;;4979335;28;20205;-83
2023/12/12 00:12:33;;;;;;;10.17;5.17;;;9.20;99.90;;;;;;4979941;28;20221;-83
2023/12/12 00:15:01;;;;;;;10.13;4.20;;;9.20;99.90;;;;;;4978040;28;20200;-82
2023/12/12 00:17:28;;;;;;;11.47;4.60;;;9.10;99.90;;;;;;4979722;28;20578;-82
2023/12/12 00:19:55;;;;;;;8.17;4.00;;;9.20;99.90;;;;;;4979070;28;20201;-82
2023/12/12 00:22:23;;;;;;;7.57;4.23;;;9.20;99.90;;;;;;4980278;28;20193;-83
2023/12/12 00:24:52;;;;;;;7.80;4.37;;;9.10;99.90;;;;;;4976674;28;20220;-83
2023/12/12 00:27:19;;;;;;;11.07;4.67;;;9.10;99.90;;;;;;4995270;28;20221;-82
2023/12/12 00:29:46;;;;;;;11.23;3.77;;;9.10;99.90;;;;;;4994884;28;20247;-83
2023/12/12 00:32:14;;;;;;;12.37;4.67;;;9.20;99.90;;;;;;4979475;28;20224;-83
2023/12/12 00:34:41;;;;;;;7.77;3.90;;;9.30;99.90;;;;;;4979793;28;20193;-83
2023/12/12 00:37:09;;;;;;;8.83;3.60;;;9.40;99.90;;;;;;4979480;28;20232;-83
2023/12/12 00:39:38;;;;;;;5.93;3.70;;;9.40;99.90;;;;;;4979502;28;20197;-83
2023/12/12 00:42:07;;;;;;;6.13;3.83;;;9.50;99.90;;;;;;4995775;28;20208;-83
2023/12/12 00:44:35;;;;;;;4.97;3.80;;;9.30;99.90;;;;;;4980640;28;20193;-83
2023/12/12 00:47:02;;;;;;;6.27;3.77;;;9.30;99.90;;;;;;4979566;28;20613;-83
2023/12/12 00:49:30;;;;;;;7.47;3.70;;;9.30;99.90;;;;;;4980469;28;20208;-83
2023/12/12 00:51:57;;;;;;;5.10;3.33;;;9.30;99.90;;;;;;4992020;28;20213;-83
2023/12/12 00:54:25;;;;;;;9.73;3.80;;;9.30;99.90;;;;;;4995995;28;20205;-84
2023/12/12 00:56:52;;;;;;;7.10;3.60;;;9.30;99.90;;;;;;4979073;28;20221;-83
2023/12/12 00:59:21;;;;;;;7.57;3.03;;;9.30;99.90;;;;;;4973793;28;20197;-83
2023/12/12 01:01:48;;;;;;;8.80;4.20;;;9.30;99.90;;;;;;4975541;28;20197;-83
2023/12/12 01:04:16;;;;;;;5.50;3.07;;;9.30;99.90;;;;;;4990113;28;20697;-83
2023/12/12 01:06:43;;;;;;;9.67;3.87;;;9.30;99.90;;;;;;4992361;28;20205;-83
2023/12/12 01:09:10;;;;;;;6.23;2.97;;;9.20;99.90;;;;;;4975578;28;20204;-83
2023/12/12 01:11:38;;;;;;;9.13;3.80;;;9.30;99.90;;;;;;4992790;28;20237;-83
2023/12/12 01:14:05;;;;;;;4.83;3.00;;;9.30;99.90;;;;;;4975744;28;20205;-83
2023/12/12 01:16:34;;;;;;;8.10;3.43;;;9.30;99.90;;;;;;4975137;28;20205;-83
2023/12/12 01:19:02;;;;;;;6.23;3.13;;;9.30;99.90;;;;;;4975708;28;20208;-83
2023/12/12 01:21:29;;;;;;;6.17;3.00;;;9.30;99.90;;;;;;4975484;28;20197;-83
2023/12/12 01:23:57;;;;;;;7.33;3.33;;;9.30;99.90;;;;;;4975542;28;20224;-83
2023/12/12 01:26:25;;;;;;;6.50;3.33;;;9.30;99.90;;;;;;4991812;28;20205;-83
2023/12/12 01:28:52;;;;;;;6.17;3.07;;;9.30;99.90;;;;;;4972064;28;20577;-83
2023/12/12 01:31:20;;;;;;;7.03;3.10;;;9.30;99.90;;;;;;4975821;28;20687;-83
2023/12/12 01:33:50;;;;;;;6.67;3.73;;;9.30;99.90;;;;;;4977578;28;20197;-83
2023/12/12 01:36:17;;;;;;;9.27;3.53;;;9.20;99.90;;;;;;4975279;28;20200;-83
2023/12/12 01:38:45;;;;;;;7.77;3.10;;;9.30;99.90;;;;;;4972806;28;20237;-83
2023/12/12 01:41:13;;;;;;;7.67;3.27;;;9.30;99.90;;;;;;4976266;28;20192;-83
2023/12/12 01:43:41;;;;;;;7.73;3.23;;;9.30;99.90;;;;;;4975524;28;20208;-83
2023/12/12 01:46:12;;;;;;;7.60;2.87;;;9.30;99.90;;;;;;4975159;28;20201;-83
2023/12/12 01:48:40;;;;;;;5.83;2.87;;;9.20;99.90;;;;;;4976798;28;20223;-83
2023/12/12 01:51:09;;;;;;;6.70;2.83;;;9.20;99.90;;;;;;4991100;28;20201;-83
2023/12/12 01:53:42;;;;;;;9.27;3.23;;;9.20;99.90;;;;;;4976048;28;20220;-83
2023/12/12 01:56:11;;;;;;;9.40;3.10;;;9.20;99.90;;;;;;4972070;28;20189;-83
2023/12/12 01:58:41;;;;;;;7.73;3.47;;;9.10;99.90;;;;;;4968773;28;20228;-83
2023/12/12 02:01:09;;;;;;;10.60;3.77;;;9.20;99.90;;;;;;4975840;28;20205;-82
2023/12/12 02:03:37;;;;;;;7.20;3.10;;;9.20;99.90;;;;;;4992329;28;20205;-83
2023/12/12 02:06:07;;;;;;;10.03;3.07;;;9.20;99.90;;;;;;4975299;28;20669;-82
2023/12/12 02:08:36;;;;;;;9.37;3.33;;;9.20;99.90;;;;;;4975496;28;20217;-83
2023/12/12 02:11:03;;;;;;;7.67;3.50;;;9.20;99.90;;;;;;4974711;28;20205;-83
2023/12/12 02:13:31;;;;;;;7.43;3.47;;;9.20;99.90;;;;;;4975211;28;20224;-83
2023/12/12 02:15:58;;;;;;;10.30;3.23;;;9.30;99.90;;;;;;4975816;28;20220;-83
2023/12/12 02:18:26;;;;;;;9.93;3.50;;;9.30;99.90;;;;;;4992429;28;20231;-83
2023/12/12 02:20:53;;;;;;;8.57;2.93;;;9.30;99.90;;;;;;4991854;28;20663;-83
2023/12/12 02:23:22;;;;;;;7.10;2.97;;;9.20;99.90;;;;;;4972085;28;20208;-83
2023/12/12 02:25:51;;;;;;;6.57;3.10;;;9.20;99.90;;;;;;4978003;28;20209;-83
2023/12/12 02:28:19;;;;;;;9.70;3.63;;;9.30;99.90;;;;;;4977266;28;20244;-83
2023/12/12 02:30:46;;;;;;;8.60;3.60;;;9.20;99.90;;;;;;4975675;28;20205;-83
2023/12/12 02:33:14;;;;;;;7.57;3.77;;;9.20;99.90;;;;;;4976898;28;20305;-83
2023/12/12 02:35:41;;;;;;;8.67;3.50;;;9.20;99.90;;;;;;4976107;28;20216;-83
2023/12/12 02:38:09;;;;;;;15.53;3.77;;;9.20;99.90;;;;;;4991774;28;20237;-83
2023/12/12 02:40:37;;;;;;;9.63;3.50;;;9.20;99.90;;;;;;4972898;28;20212;-83
2023/12/12 02:43:05;;;;;;;9.83;3.60;;;9.30;99.90;;;;;;4972747;28;20201;-83
2023/12/12 02:45:32;;;;;;;6.13;2.90;;;9.20;99.90;;;;;;4971820;28;20201;-83
2023/12/12 02:48:00;;;;;;;7.63;3.23;;;9.30;99.90;;;;;;4990956;28;20217;-83
2023/12/12 02:50:27;;;;;;;9.43;3.40;;;9.30;99.90;;;;;;4975350;28;20200;-83
2023/12/12 02:52:55;;;;;;;11.17;3.67;;;9.20;99.90;;;;;;4991438;28;20583;-83
2023/12/12 02:55:22;;;;;;;9.13;3.97;;;9.30;99.90;;;;;;4974094;28;20205;-83
2023/12/12 02:57:51;;;;;;;8.47;3.20;;;9.20;99.90;;;;;;4972658;28;20240;-83
2023/12/12 03:00:19;;;;;;;5.37;2.87;;;9.20;99.90;;;;;;4974317;28;20564;-83
2023/12/12 03:02:46;;;;;;;11.93;3.53;;;9.30;99.90;;;;;;4989765;28;20197;-83
2023/12/12 03:05:14;;;;;;;7.37;3.30;;;9.20;99.90;;;;;;4990638;28;20209;-83
2023/12/12 03:07:41;;;;;;;10.27;3.50;;;9.20;99.90;;;;;;4975093;28;20221;-83
2023/12/12 03:10:08;;;;;;;12.47;3.90;;;9.20;99.90;;;;;;4973489;28;20197;-83
2023/12/12 03:12:35;;;;;;;9.30;3.33;;;9.20;99.90;;;;;;4972948;28;20209;-83
2023/12/12 03:15:05;;;;;;;7.60;3.60;;;9.20;99.90;;;;;;4974273;28;20209;-83
2023/12/12 03:17:32;;;;;;;7.97;3.33;;;9.20;99.90;;;;;;4990661;28;20228;-83
2023/12/12 03:20:00;;;;;;;9.53;3.67;;;9.20;99.90;;;;;;4973657;28;20208;-83
2023/12/12 03:22:27;;;;;;;11.83;3.50;;;9.20;99.90;;;;;;4973980;28;20193;-83
2023/12/12 03:24:55;;;;;;;13.60;3.73;;;9.30;99.90;;;;;;4972481;28;20201;-83
2023/12/12 03:27:23;;;;;;;8.30;3.90;;;9.30;99.90;;;;;;4987413;28;20229;-83
2023/12/12 03:29:50;;;;;;;12.63;4.07;;;9.30;99.90;;;;;;4989622;28;20212;-83
2023/12/12 03:32:22;;;;;;;11.17;4.00;;;9.20;99.90;;;;;;4976744;28;20287;-83
2023/12/12 03:34:50;;;;;;;11.93;3.67;;;9.10;99.90;;;;;;4990859;28;20200;-83
2023/12/12 03:37:17;;;;;;;11.97;3.77;;;9.20;99.90;;;;;;4975809;28;20236;-83
2023/12/12 03:39:45;;;;;;;11.87;4.10;;;9.20;99.90;;;;;;4984785;28;20657;-83
2023/12/12 03:42:12;;;;;;;15.17;4.23;;;9.30;99.90;;;;;;4990716;28;20205;-83
2023/12/12 03:44:40;;;;;;;18.53;4.33;;;9.20;99.90;;;;;;4974379;28;20197;-83
2023/12/12 03:47:07;;;;;;;14.37;4.37;;;9.20;99.90;;;;;;4973938;28;20233;-83
2023/12/12 03:49:36;;;;;;;15.10;5.30;;;9.20;99.90;;;;;;4973229;28;20205;-83
2023/12/12 03:52:04;;;;;;;11.13;4.17;;;9.20;99.90;;;;;;4972951;28;20193;-83
2023/12/12 03:54:33;;;;;;;16.93;5.00;;;9.20;99.90;;;;;;4988167;28;20225;-83
2023/12/12 03:57:00;;;;;;;11.50;4.40;;;9.20;99.90;;;;;;4972232;28;20232;-83
2023/12/12 03:59:27;;;;;;;13.77;3.93;;;9.20;99.90;;;;;;4971713;28;20205;-83
2023/12/12 04:01:55;;;;;;;15.27;4.37;;;9.10;99.90;;;;;;4988464;28;20204;-83
2023/12/12 04:04:22;;;;;;;15.33;4.70;;;9.10;99.90;;;;;;4990562;28;20202;-83
2023/12/12 04:06:51;;;;;;;11.63;3.87;;;9.10;99.90;;;;;;4972365;28;20212;-83
2023/12/12 04:09:19;;;;;;;10.67;4.70;;;9.10;99.90;;;;;;4976082;28;20197;-83
2023/12/12 04:11:46;;;;;;;15.03;4.73;;;9.10;99.90;;;;;;4991712;28;20688;-83
2023/12/12 04:14:13;;;;;;;11.20;3.73;;;9.10;99.90;;;;;;4978463;28;20205;-83
2023/12/12 04:16:41;;;;;;;9.23;3.20;;;9.10;99.90;;;;;;5009297;23;20238;-78
2023/12/12 04:19:08;;;;;;;9.30;3.63;;;9.10;99.90;;;;;;4998106;28;20195;-78
2023/12/12 04:21:36;;;;;;;13.07;4.17;;;9.10;99.90;;;;;;4994517;28;20203;-78
2023/12/12 04:24:05;;;;;;;12.83;4.20;;;9.00;99.90;;;;;;4995469;28;20201;-78
2023/12/12 04:26:32;;;;;;;15.30;4.43;;;9.00;99.90;;;;;;4994997;28;20223;-78
2023/12/12 04:29:00;;;;;;;14.87;4.10;;;9.00;99.90;;;;;;4998085;28;20538;-79
2023/12/12 04:31:27;;;;;;;12.53;4.37;;;9.00;99.90;;;;;;4994568;28;20196;-79
2023/12/12 04:33:54;;;;;;;13.77;4.10;;;9.00;99.90;;;;;;4998103;28;20219;-78
2023/12/12 04:36:22;;;;;;;17.90;4.13;;;9.00;99.90;;;;;;4995091;28;20698;-78
2023/12/12 04:38:49;;;;;;;15.47;4.50;;;9.00;99.90;;;;;;5004229;28;20199;-79
2023/12/12 04:41:18;;;;;;;9.87;4.43;;;9.00;99.90;;;;;;4994871;28;20211;-78
2023/12/12 04:43:45;;;;;;;14.60;3.60;;;8.90;99.90;;;;;;4994637;28;20203;-78
2023/12/12 04:46:19;;;;;;;12.33;3.80;;;8.90;99.90;;;;;;5006839;28;20208;-78
2023/12/12 04:48:46;;;;;;;23.50;4.40;;;9.00;99.90;;;;;;4982143;28;20207;-78
2023/12/12 04:51:14;;;;;;;16.30;4.87;;;8.90;99.90;;;;;;5003367;28;20197;-79
2023/12/12 04:53:42;;;;;;;14.47;4.33;;;9.00;99.90;;;;;;4998093;28;20574;-78
2023/12/12 04:56:10;;;;;;;11.77;4.80;;;9.00;99.90;;;;;;4982801;28;20207;-78
2023/12/12 04:58:38;;;;;;;17.37;5.40;;;9.00;99.90;;;;;;4995224;28;20212;-78
2023/12/12 05:01:06;;;;;;;20.33;5.27;;;8.90;99.90;;;;;;4998232;28;20656;-78
2023/12/12 05:03:33;;;;;;;18.77;5.13;;;8.90;99.90;;;;;;4995803;28;20564;-78
2023/12/12 05:06:01;;;;;;;13.33;4.37;;;9.00;99.90;;;;;;5003852;28;20215;-78
2023/12/12 05:08:28;;;;;;;23.90;5.33;;;9.00;99.90;;;;;;5006237;28;20197;-79
2023/12/12 05:10:56;;;;;;;19.90;4.60;;;9.00;99.90;;;;;;4998878;28;20207;-79
2023/12/12 05:13:23;;;;;;;19.90;4.77;;;9.00;99.90;;;;;;4977776;28;20703;-79
2023/12/12 05:15:52;;;;;;;17.07;4.50;;;9.00;99.90;;;;;;4978341;28;20211;-78
2023/12/12 05:18:19;;;;;;;19.03;5.80;;;8.90;99.90;;;;;;4991713;28;20238;-78
2023/12/12 05:20:47;;;;;;;19.57;5.27;;;9.00;99.90;;;;;;5004014;28;20563;-78
2023/12/12 05:23:15;;;;;;;14.87;4.83;;;9.00;99.90;;;;;;4999974;28;20200;-78
2023/12/12 05:25:42;;;;;;;18.83;6.10;;;9.00;99.90;;;;;;4994274;28;20192;-78
2023/12/12 05:28:10;;;;;;;10.83;4.13;;;8.90;99.90;;;;;;5005429;28;20219;-78
2023/12/12 05:30:37;;;;;;;18.17;5.20;;;8.90;99.90;;;;;;5006489;28;20199;-78
2023/12/12 05:33:06;;;;;;;16.90;4.93;;;8.90;99.90;;;;;;4996762;28;20199;-78
2023/12/12 05:35:33;;;;;;;20.17;5.13;;;9.00;99.90;;;;;;4997471;28;20207;-78
2023/12/12 05:38:03;;;;;;;18.47;4.73;;;9.00;99.90;;;;;;5012621;28;20223;-78
2023/12/12 05:40:30;;;;;;;16.27;4.87;;;8.90;99.90;;;;;;4993290;28;20215;-79
2023/12/12 05:42:58;;;;;;;15.47;4.77;;;8.90;99.90;;;;;;5011491;28;20207;-78
2023/12/12 05:45:26;;;;;;;17.03;5.50;;;9.00;99.90;;;;;;5007902;28;20181;-78
2023/12/12 05:47:54;;;;;;;12.20;4.97;;;9.00;99.90;;;;;;5000806;28;20594;-78
2023/12/12 05:50:23;;;;;;;15.33;5.10;;;9.00;99.90;;;;;;4984409;28;20200;-78
2023/12/12 05:52:51;;;;;;;21.33;5.23;;;9.00;99.90;;;;;;5001636;28;20199;-78
2023/12/12 05:55:18;;;;;;;19.93;5.47;;;8.80;99.90;;;;;;4992880;28;20220;-79
2023/12/12 05:57:46;;;;;;;16.50;4.90;;;8.80;99.90;;;;;;4992573;28;20224;-78
2023/12/12 06:00:14;;;;;;;11.70;4.70;;;8.80;99.90;;;;;;4981916;28;20211;-78
2023/12/12 06:02:41;;;;;;;14.87;5.13;;;8.80;99.90;;;;;;5005371;28;20222;-78
2023/12/12 06:05:09;;;;;;;16.57;4.93;;;8.70;99.90;;;;;;4995523;28;20508;-78
2023/12/12 06:07:39;;;;;;;14.93;5.17;;;8.70;99.90;;;;;;4980547;28;20219;-78
2023/12/12 06:10:08;;;;;;;16.63;5.20;;;8.70;99.90;;;;;;4997522;28;20206;-78
2023/12/12 06:12:35;;;;;;;17.13;6.43;;;8.70;99.90;;;;;;4978690;28;20219;-78
2023/12/12 06:15:06;;;;;;;21.43;6.57;;;8.70;99.90;;;;;;4994175;28;20208;-78
2023/12/12 06:17:33;;;;;;;14.63;4.43;;;8.60;99.90;;;;;;4998092;28;20239;-78
2023/12/12 06:20:01;;;;;;;21.23;5.77;;;8.70;99.90;;;;;;4988036;28;20207;-78
2023/12/12 06:22:28;;;;;;;16.70;4.90;;;8.70;99.90;;;;;;5009986;28;20200;-80
2023/12/12 06:24:57;;;;;;;16.83;5.23;;;8.80;99.90;;;;;;4990421;28;20203;-80
2023/12/12 06:27:24;;;;;;;20.93;5.87;;;8.80;99.90;;;;;;5001662;28;20215;-80
2023/12/12 06:29:52;;;;;;;15.23;5.80;;;8.70;99.90;;;;;;4996420;28;20208;-80
2023/12/12 06:32:20;;;;;;;18.07;5.87;;;8.70;99.90;;;;;;4996151;28;20206;-80
2023/12/12 06:34:47;;;;;;;12.87;5.27;;;8.70;99.90;;;;;;5001478;28;20215;-80
2023/12/12 06:37:14;;;;;;;15.50;5.70;;;8.70;99.90;;;;;;4995646;28;20212;-80
2023/12/12 06:39:42;;;;;;;18.63;5.93;;;8.70;99.90;;;;;;4985077;28;20200;-81
2023/12/12 06:42:11;;;;;;;7.07;2.73;;;8.80;99.90;;;;;;4986515;28;20203;-80
2023/12/12 06:44:38;;;;;;;21.57;5.80;;;9.90;99.90;;;;;;5005088;28;20188;-80
2023/12/12 06:47:06;;;;;;;11.50;4.70;;;10.00;99.90;;;;;;4997151;28;20216;-80
2023/12/12 06:49:33;;;;;;;18.77;5.67;;;10.50;99.90;;;;;;4987168;28;20548;-78
2023/12/12 06:52:01;;;;;;;16.47;5.90;;;9.70;99.90;;;;;;5004782;28;20451;-78
2023/12/12 06:54:28;;;;;;;16.97;5.57;;;9.40;99.90;;;;;;4998065;28;20207;-78
2023/12/12 06:56:56;;;;;;;21.23;6.97;;;9.30;99.90;;;;;;4981059;28;20687;-78
2023/12/12 06:59:30;;;;;;;15.47;5.37;;;9.20;99.90;;;;;;4988577;28;20196;-78
2023/12/12 07:01:57;;;;;;;17.40;6.03;;;9.20;99.90;;;;;;5003285;28;20206;-77
2023/12/12 07:04:25;;;;;;;13.80;5.27;;;9.10;99.90;;;;;;4986982;28;20200;-78
2023/12/12 07:06:57;;;;;;;21.50;5.77;;;9.00;99.90;;;;;;5004517;28;20231;-78
2023/12/12 07:09:34;;;;;;;16.43;5.67;;;9.00;99.90;;;;;;4978683;28;20283;-78
2023/12/12 07:12:02;;;;;;;17.77;5.93;;;8.90;99.90;;;;;;4994808;28;20199;-78
2023/12/12 07:14:42;;;;;;;18.17;5.17;;;8.90;99.90;;;;;;4994720;28;20211;-80
2023/12/12 07:17:09;;;;;;;13.33;5.30;;;8.90;99.90;;;;;;5013279;28;20231;-80
2023/12/12 07:19:37;;;;;;;14.17;6.17;;;8.90;99.90;;;;;;4998553;28;20204;-80
2023/12/12 07:22:10;;;;;;;17.40;5.70;;;8.90;99.90;;;;;;5008302;28;20187;-80
2023/12/12 07:24:41;;;;;;;12.53;4.70;;;8.90;99.90;;;;;;5013852;28;20195;-80
2023/12/12 07:27:09;;;;;;;16.20;5.33;;;8.80;99.90;;;;;;4999211;28;20226;-79
2023/12/12 07:29:38;;;;;;;15.17;5.07;;;8.90;99.90;;;;;;4983633;28;20196;-79
2023/12/12 07:32:07;;;;;;;14.93;5.73;;;8.90;99.90;;;;;;4997036;28;20211;-79
2023/12/12 07:34:35;;;;;;;16.63;5.77;;;9.00;99.90;;;;;;5001183;28;20208;-79
2023/12/12 07:37:02;;;;;;;16.93;5.77;;;9.00;99.90;;;;;;4997353;28;20220;-79
2023/12/12 07:39:31;;;;;;;24.97;6.37;;;9.00;99.90;;;;;;4987168;28;20196;-79
2023/12/12 07:41:58;;;;;;;22.40;6.77;;;9.00;99.90;;;;;;4996220;28;20196;-79
2023/12/12 07:44:37;;;;;;;11.60;4.77;;;9.10;99.90;;;;;;4995917;28;20199;-79
2023/12/12 07:47:08;;;;;;;17.37;5.40;;;9.00;99.90;;;;;;4986113;28;20698;-79
2023/12/12 07:49:35;;;;;;;14.40;4.87;;;9.00;99.90;;;;;;4993530;28;20207;-80
2023/12/12 07:52:03;;;;;;;11.97;4.40;;;9.00;99.90;;;;;;5009491;28;20196;-79
2023/12/12 07:54:30;;;;;;;13.47;4.50;;;9.10;99.90;;;;;;5016302;28;20192;-79
2023/12/12 07:56:58;;;;;;;11.67;4.50;;;9.10;99.90;;;;;;4988750;28;20231;-79
2023/12/12 07:59:25;;;;;;;11.07;4.07;;;9.10;99.90;;;;;;5010117;28;20225;-79
2023/12/12 08:01:53;;;;;;;12.93;3.97;;;9.20;99.90;;;;;;4992335;28;20227;-78
2023/12/12 08:04:21;;;;;;;11.23;3.90;;;9.10;99.90;;;;;;5007063;28;20200;-78
2023/12/12 08:06:49;;;;;;;13.07;4.13;;;9.10;99.90;;;;;;5000845;28;20212;-79
2023/12/12 08:09:17;;;;;;;13.50;4.50;;;9.10;99.90;;;;;;4998247;28;20196;-79
2023/12/12 08:11:44;;;;;;;12.00;5.17;;;9.10;99.90;;;;;;5011920;28;20199;-79
2023/12/12 08:14:12;;;;;;;14.93;5.17;;;9.10;99.90;;;;;;4990368;28;20197;-79
2023/12/12 08:16:39;;;;;;;17.70;4.93;;;9.20;99.90;;;;;;5005892;28;20227;-79
2023/12/12 08:19:07;;;;;;;19.37;6.10;;;9.20;99.90;;;;;;5008297;28;20200;-79
2023/12/12 08:21:38;;;;;;;15.10;4.50;;;9.10;99.90;;;;;;5001139;28;20195;-79
2023/12/12 08:24:06;;;;;;;14.83;4.43;;;9.10;99.90;;;;;;4981897;28;20563;-79
2023/12/12 08:26:41;;;;;;;18.80;5.63;;;9.10;99.90;;;;;;4991081;28;20227;-81
2023/12/12 08:29:08;;;;;;;16.83;5.47;;;9.20;99.90;;;;;;5000278;28;20203;-81
2023/12/12 08:31:37;;;;;;;13.60;5.23;;;9.10;99.90;;;;;;5010466;28;20207;-81
2023/12/12 08:34:05;;;;;;;14.23;4.40;;;9.20;99.90;;;;;;5010771;28;20194;-81
2023/12/12 08:36:33;;;;;;;12.87;4.23;;;9.20;99.90;;;;;;4991995;28;20581;-81
2023/12/12 08:39:02;;;;;;;10.07;4.03;;;9.20;99.90;;;;;;5003753;28;20204;-80
2023/12/12 08:41:40;;;;;;;14.57;4.93;;;9.20;99.90;;;;;;5004904;28;20204;-81
2023/12/12 08:44:07;;;;;;;15.00;4.27;;;9.20;99.90;;;;;;5005669;28;20207;-80
2023/12/12 08:46:35;;;;;;;17.40;4.73;;;9.30;99.90;;;;;;5006536;28;20681;-80
2023/12/12 08:49:03;;;;;;;15.47;4.70;;;9.30;99.90;;;;;;4991613;28;20204;-82
2023/12/12 08:51:30;;;;;;;10.93;4.50;;;9.30;99.90;;;;;;5003307;28;20195;-80
2023/12/12 08:53:59;;;;;;;15.30;5.07;;;9.30;99.90;;;;;;5004897;28;20215;-81
2023/12/12 08:56:27;;;;;;;14.37;4.50;;;9.40;99.90;;;;;;5006095;28;20224;-80
2023/12/12 08:58:55;;;;;;;11.40;4.50;;;9.40;99.90;;;;;;4994454;28;20204;-80
2023/12/12 09:01:22;;;;;;;11.60;4.83;;;9.40;99.90;;;;;;5013845;28;20196;-80
2023/12/12 09:03:50;;;;;;;11.07;3.67;;;9.40;99.90;;;;;;5006846;28;20203;-80
2023/12/12 09:06:17;;;;;;;9.47;3.97;;;9.50;99.90;;;;;;4997079;28;20222;-80
2023/12/12 09:08:45;;;;;;;13.00;4.13;;;9.40;99.90;;;;;;4998373;28;20211;-80
2023/12/12 09:11:13;;;;;;;12.10;4.40;;;9.50;99.90;;;;;;4999421;28;20204;-80
2023/12/12 09:13:43;;;;;;;12.47;4.23;;;9.50;99.90;;;;;;4997605;28;20204;-80
2023/12/12 09:16:11;;;;;;;11.93;4.23;;;9.60;99.90;;;;;;4999659;28;20215;-80
2023/12/12 09:18:38;;;;;;;7.80;3.37;;;9.50;99.90;;;;;;5008318;28;20651;-80
2023/12/12 09:21:07;;;;;;;13.43;3.83;;;9.60;99.90;;;;;;5004504;28;20204;-80
2023/12/12 09:23:34;;;;;;;9.77;3.60;;;9.60;99.90;;;;;;5004549;28;20239;-80
2023/12/12 09:26:02;;;;;;;14.30;4.13;;;9.60;99.90;;;;;;5007969;28;20203;-80
2023/12/12 09:28:29;;;;;;;11.93;3.17;;;9.60;99.90;;;;;;5011400;28;20200;-80
2023/12/12 09:30:58;;;;;;;13.60;3.53;;;9.60;99.90;;;;;;4994152;28;20233;-80
2023/12/12 09:33:26;;;;;;;12.27;4.27;;;9.60;99.90;;;;;;5013480;28;20207;-80
2023/12/12 09:35:53;;;;;;;19.80;4.43;;;9.70;99.90;;;;;;5002060;28;20220;-80
2023/12/12 09:38:21;;;;;;;12.87;3.73;;;9.80;99.90;;;;;;5013116;28;20227;-80
2023/12/12 09:40:48;;;;;;;14.67;3.47;;;9.80;99.90;;;;;;5009714;28;20196;-80
2023/12/12 09:43:17;;;;;;;14.50;3.73;;;9.80;99.90;;;;;;4998020;28;20203;-79
2023/12/12 09:45:46;;;;;;;12.63;3.70;;;9.80;99.90;;;;;;4999484;28;20214;-79
2023/12/12 09:48:15;;;;;;;11.47;3.67;;;9.90;99.90;;;;;;5007072;28;20219;-80
2023/12/12 09:50:46;;;;;;;10.97;3.30;;;9.90;99.90;;;;;;5013316;28;20202;-79
2023/12/12 09:53:14;;;;;;;14.03;3.13;;;9.90;99.90;;;;;;5000499;28;20200;-79
2023/12/12 09:55:44;;;;;;;14.70;4.23;;;9.90;99.90;;;;;;5001843;28;20212;-80
2023/12/12 09:58:12;;;;;;;11.27;4.07;;;11.10;99.90;;;;;;4990728;28;20278;-79
2023/12/12 10:00:40;;;;;;;9.87;3.03;;;11.40;99.90;;;;;;4989696;28;20204;-80
2023/12/12 10:03:08;;;;;;;10.03;3.00;;;11.70;99.90;;;;;;4999620;28;20204;-79
2023/12/12 10:05:38;;;;;;;9.50;3.20;;;11.30;99.90;;;;;;5000935;28;20686;-79
2023/12/12 10:08:06;;;;;;;14.87;3.70;;;10.50;99.90;;;;;;5003437;28;20215;-79
2023/12/12 10:10:34;;;;;;;10.17;3.77;;;10.40;99.90;;;;;;5003394;28;20215;-79
2023/12/12 10:13:01;;;;;;;9.73;2.87;;;10.40;99.90;;;;;;5002187;28;20667;-79
2023/12/12 10:15:29;;;;;;;8.30;2.60;;;10.40;99.90;;;;;;5001754;28;20203;-79
2023/12/12 10:18:01;;;;;;;8.40;3.40;;;10.50;99.90;;;;;;4983183;28;20238;-79
2023/12/12 10:20:30;;;;;;;12.37;3.07;;;10.60;99.90;;;;;;4986460;28;20201;-79
2023/12/12 10:23:04;;;;;;;7.93;2.87;;;10.50;99.90;;;;;;4992028;28;20208;-80
2023/12/12 10:25:32;;;;;;;11.03;2.93;;;10.60;99.90;;;;;;4999412;28;20192;-80
2023/12/12 10:28:00;;;;;;;8.30;2.57;;;10.70;99.90;;;;;;5006027;28;20702;-80
2023/12/12 10:30:28;;;;;;;7.47;2.40;;;10.80;99.90;;;;;;4997025;28;20207;-80
2023/12/12 10:32:56;;;;;;;5.77;2.47;;;11.10;99.90;;;;;;4997258;28;20200;-80
2023/12/12 10:35:24;;;;;;;9.50;2.93;;;11.20;99.90;;;;;;4999292;28;20197;-80
2023/12/12 10:37:52;;;;;;;9.03;2.50;;;11.50;99.90;;;;;;4999105;28;20234;-80
2023/12/12 10:40:22;;;;;;;7.77;2.47;;;11.60;99.90;;;;;;5001541;28;20203;-80
2023/12/12 10:42:50;;;;;;;5.80;2.63;;;11.60;99.90;;;;;;4999925;28;20212;-80
2023/12/12 10:45:20;;;;;;;9.23;2.67;;;11.80;99.90;;;;;;5002958;28;20205;-80
2023/12/12 10:47:48;;;;;;;8.67;2.50;;;11.90;99.90;;;;;;5008248;28;20211;-80
2023/12/12 10:50:18;;;;;;;8.98;2.42;;;12.00;99.90;;;;;;5002196;28;20203;-80
2023/12/12 10:52:48;;;;;;;5.30;2.05;;;12.30;99.90;;;;;;5007737;28;20196;-80
2023/12/12 10:55:16;;;;;;;5.80;2.13;;;12.40;99.90;;;;;;5000866;28;20198;-80
2023/12/12 10:57:48;;;;;;;8.35;2.33;;;12.30;99.90;;;;;;5004252;28;20679;-80
2023/12/12 11:00:17;;;;;;;8.18;2.60;;;12.40;99.90;;;;;;4999326;28;20690;-80
2023/12/12 11:02:45;;;;;;;5.93;2.00;;;12.60;99.90;;;;;;4995366;28;20229;-80
2023/12/12 11:05:14;;;;;;;9.75;2.38;;;12.80;99.90;;;;;;5009702;28;20204;-80
2023/12/12 11:07:45;;;;;;;7.55;2.85;;;13.20;99.90;;;;;;4984717;28;20223;-80
2023/12/12 11:10:14;;;;;;;8.23;2.22;;;13.30;99.90;;;;;;5004307;28;20201;-81
2023/12/12 11:12:46;;;;;;;9.15;2.20;;;13.10;99.90;;;;;;5004282;28;20204;-79
2023/12/12 11:15:15;;;;;;;9.13;2.50;;;15.40;99.90;;;;;;5002615;28;20209;-79
2023/12/12 11:17:43;;;;;;;8.98;2.10;;;15.50;99.90;;;;;;5000128;28;20224;-79
2023/12/12 11:20:13;;;;;;;7.22;2.00;;;15.50;99.90;;;;;;4981266;28;20204;-79
2023/12/12 11:22:42;;;;;;;5.45;1.80;;;16.40;99.90;;;;;;4999763;28;20200;-79
2023/12/12 11:25:15;;;;;;;5.60;2.00;;;17.10;98.90;;;;;;4996431;28;20718;-79
2023/12/12 11:27:48;;;;;;;6.95;1.98;;;14.60;99.90;;;;;;4995716;28;20219;-79
2023/12/12 11:30:17;;;;;;;6.85;2.08;;;13.50;99.90;;;;;;4996127;28;20204;-78
2023/12/12 11:32:46;;;;;;;7.63;2.40;;;13.10;99.90;;;;;;5007127;28;20595;-78
2023/12/12 11:35:30;;;;;;;8.13;2.05;;;12.90;99.90;;;;;;4997567;28;20223;-78
2023/12/12 11:37:58;;;;;;;8.38;2.20;;;12.80;99.90;;;;;;5005536;28;20219;-78
2023/12/12 11:40:27;;;;;;;8.68;2.30;;;12.70;99.90;;;;;;5000512;28;20196;-79
2023/12/12 11:42:57;;;;;;;7.10;1.88;;;12.50;99.90;;;;;;5002236;28;20212;-79
2023/12/12 11:45:32;;;;;;;6.07;1.85;;;12.90;99.90;;;;;;4999183;28;20200;-79
2023/12/12 11:48:01;;;;;;;8.57;1.70;;;13.00;99.90;;;;;;4982030;28;20223;-78
2023/12/12 11:50:32;;;;;;;7.28;1.67;;;12.70;99.90;;;;;;5001744;28;20203;-78
2023/12/12 11:53:01;;;;;;;5.35;1.85;;;12.70;99.90;;;;;;4997992;28;20212;-79
2023/12/12 11:55:31;;;;;;;6.05;1.92;;;12.60;99.90;;;;;;4997735;28;20664;-79
2023/12/12 11:58:01;;;;;;;6.20;1.80;;;12.60;99.90;;;;;;4986390;28;20227;-79
2023/12/12 12:00:32;;;;;;;5.45;1.60;;;12.60;99.90;;;;;;4995543;28;20198;-78
2023/12/12 12:03:00;;;;;;;5.03;1.50;;;12.30;99.90;;;;;;5006327;28;20218;-78
2023/12/12 12:05:28;;;;;;;5.22;1.90;;;12.20;99.90;;;;;;5002864;28;20205;-79
2023/12/12 12:07:56;;;;;;;3.85;1.73;;;12.30;99.90;;;;;;4996044;28;20232;-79
2023/12/12 12:10:24;;;;;;;4.28;1.50;;;12.30;99.90;;;;;;4988593;28;20204;-79
2023/12/12 12:12:52;;;;;;;6.78;1.80;;;12.40;99.90;;;;;;4989674;28;20205;-79
2023/12/12 12:15:21;;;;;;;5.10;2.00;;;12.40;99.90;;;;;;5001733;28;20192;-79
2023/12/12 12:17:48;;;;;;;4.13;1.58;;;12.30;99.90;;;;;;4977585;28;20228;-78
2023/12/12 12:20:16;;;;;;;4.88;1.50;;;12.10;99.90;;;;;;4995190;28;20200;-78
2023/12/12 12:22:43;;;;;;;7.28;1.73;;;12.20;99.90;;;;;;5000270;28;20196;-78
2023/12/12 12:25:11;;;;;;;6.45;1.45;;;12.20;99.90;;;;;;5000327;28;20204;-79
2023/12/12 12:27:49;;;;;;;6.35;1.98;;;12.30;99.90;;;;;;4996863;28;20212;-79
2023/12/12 12:30:19;;;;;;;2.50;1.50;;;12.20;99.90;;;;;;4990753;28;20211;-79
2023/12/12 12:33:03;;;;;;;5.53;1.73;;;12.10;99.90;;;;;;4999971;28;20200;-79
2023/12/12 12:35:30;;;;;;;9.65;2.70;;;12.10;99.90;;;;;;5000979;28;20205;-78
2023/12/12 12:37:58;;;;;;;5.07;1.73;;;12.00;99.90;;;;;;4995185;28;20222;-79
2023/12/12 12:40:36;;;;;;;5.38;1.67;;;11.90;99.90;;;;;;5002905;28;20204;-78
2023/12/12 12:43:13;;;;;;;7.80;2.20;;;12.10;99.90;;;;;;5005749;28;20216;-79
2023/12/12 12:45:42;;;;;;;3.97;1.58;;;12.20;99.90;;;;;;4999003;28;20195;-79
2023/12/12 12:48:09;;;;;;;4.00;1.80;;;12.30;99.90;;;;;;4998904;28;20228;-79
2023/12/12 12:50:37;;;;;;;4.65;1.92;;;12.20;99.90;;;;;;5006707;28;20687;-78
2023/12/12 12:53:04;;;;;;;7.28;2.00;;;12.20;99.90;;;;;;4982486;28;20204;-78